CRM2 weather

Riding Mountain Airport
Riding Mountain, Manitoba, Canada

Public forecast

Using degrees Celsius for public forecast. Weather courtesy of forecast.io.

Closest aviation weather report (METAR) to Riding Mountain Airport

Closest report is Dauphin Barker Airport, 41.1 nm (76.1 km) NW. Retrieved 2020/04/05 07:00 UTC (5 minutes ago):

CYDN 050700Z AUTO 29003KT 280V340 9SM OVC035 M08/M10 A3001 RMK SLP187

Closest aviation forecast (TAF) to Riding Mountain Airport

Closest forecast is Dauphin Barker Airport, 41.1 nm (76.1 km) NW. Retrieved 2020/04/05 06:42 UTC (23 minutes ago):

TAF CYDN 050539Z 0506/0518 12010KT P6SM BKN030 OVC080 TEMPO 0506/0508 1SM -SHSN VV010 FM050800 VRB03KT P6SM SCT007 BKN020 TEMPO 0508/0516 4SM -SN BR BKN007 OVC020 PROB30 0508/0511 2SM -FZDZ BR OVC004 FM051600 34005KT P6SM BKN025 TEMPO 0516/0518 BKN012 RMK FCST BASED ON AUTO OBS NXT FCST BY 051200Z